Time;durP1;ratioP1;P1;durP2;ratioP2;P2;SDS_P1;SDS_P2;PMS_P1;PMS_P2;Temp;Humidity;BMP_temperature;BMP_pressure;BME280_temperature;BME280_humidity;BME280_pressure;Samples;Min_cycle;Max_cycle;Signal;HPM_P1;HPM_P2
2022/02/05 00:05:59;;;;;;;4.28;1.75;;;15.70;64.40;;;;;;4992095;28;20084;-77
2022/02/05 00:08:53;;;;;;;5.68;1.77;;;15.70;64.20;;;;;;4991576;28;20039;-77
2022/02/05 00:38:50;;;;;;;3.83;1.67;;;15.70;63.20;;;;;;4991610;28;20089;-77
2022/02/05 00:41:16;;;;;;;5.60;1.60;;;15.70;63.20;;;;;;4991137;28;20026;-77
2022/02/05 00:43:53;;;;;;;5.07;1.80;;;15.70;63.10;;;;;;4991002;28;20037;-76
2022/02/05 00:46:20;;;;;;;3.47;1.33;;;15.70;63.10;;;;;;4991425;28;20019;-76
2022/02/05 00:48:46;;;;;;;3.20;1.52;;;15.70;62.90;;;;;;4991109;28;20041;-78
2022/02/05 00:51:19;;;;;;;4.30;1.52;;;15.70;62.90;;;;;;4991197;28;20101;-77
2022/02/05 00:53:49;;;;;;;5.07;1.50;;;15.70;62.80;;;;;;4989650;28;20042;-78
2022/02/05 00:56:26;;;;;;;5.50;1.67;;;15.70;62.70;;;;;;4991445;28;20018;-77
2022/02/05 00:58:52;;;;;;;4.38;1.45;;;15.70;62.60;;;;;;4990705;28;20027;-78
2022/02/05 01:01:18;;;;;;;5.15;1.92;;;15.70;62.40;;;;;;4993121;28;20030;-77
2022/02/05 01:03:43;;;;;;;4.38;1.42;;;15.70;62.30;;;;;;4994521;28;20429;-77
2022/02/05 01:06:09;;;;;;;5.40;1.63;;;15.70;62.20;;;;;;4994589;28;20045;-77
2022/02/05 01:08:36;;;;;;;5.85;1.63;;;15.80;62.20;;;;;;4994464;28;20463;-78
2022/02/05 01:11:02;;;;;;;4.72;1.17;;;15.80;62.20;;;;;;4994466;28;20410;-77
2022/02/05 01:13:30;;;;;;;4.82;1.42;;;15.80;62.20;;;;;;4994776;28;20161;-77
2022/02/05 01:18:28;;;;;;;3.15;1.35;;;15.80;62.10;;;;;;4994828;28;20486;-77
2022/02/05 01:23:46;;;;;;;3.60;1.10;;;15.80;61.90;;;;;;4994512;28;20406;-77
2022/02/05 01:28:48;;;;;;;6.70;1.63;;;15.80;61.80;;;;;;4993571;28;20406;-77
2022/02/05 01:31:13;;;;;;;3.67;1.60;;;15.80;61.80;;;;;;4993641;28;20049;-77
2022/02/05 01:57:40;;;;;;;5.18;1.50;;;15.90;62.10;;;;;;4993505;28;20027;-77
2022/02/05 02:05:28;;;;;;;3.97;1.17;;;15.90;62.60;;;;;;4993428;28;20056;-76
2022/02/05 02:15:38;;;;;;;6.45;1.80;;;16.00;62.40;;;;;;4993712;28;20077;-77
2022/02/05 02:20:51;;;;;;;4.65;1.50;;;16.00;62.10;;;;;;4993170;28;20038;-77
2022/02/05 02:23:51;;;;;;;4.90;1.40;;;16.00;62.00;;;;;;4993231;28;20030;-78
2022/02/05 02:26:20;;;;;;;3.65;1.35;;;16.00;62.00;;;;;;4991782;28;20034;-77
2022/02/05 02:28:57;;;;;;;4.82;1.27;;;16.00;61.90;;;;;;4992680;28;20569;-78
2022/02/05 02:31:28;;;;;;;3.58;1.33;;;16.00;61.80;;;;;;4992763;28;20026;-78
2022/02/05 02:33:57;;;;;;;4.40;1.15;;;16.00;61.80;;;;;;4973330;28;20486;-79
2022/02/05 02:39:00;;;;;;;3.13;1.00;;;16.00;61.90;;;;;;4992735;28;20397;-78
2022/02/05 02:41:34;;;;;;;3.83;1.05;;;16.00;62.10;;;;;;4993067;28;20026;-79
2022/02/05 02:43:59;;;;;;;4.70;1.23;;;16.00;62.50;;;;;;4992013;28;20529;-79
2022/02/05 02:46:25;;;;;;;4.32;1.50;;;16.00;62.50;;;;;;4992565;28;20027;-79
2022/02/05 02:48:51;;;;;;;3.33;1.30;;;16.10;62.50;;;;;;4992610;28;20026;-78
2022/02/05 02:57:10;;;;;;;4.40;1.50;;;16.10;62.30;;;;;;4956142;28;20119;-78
2022/02/05 03:00:00;;;;;;;4.72;1.42;;;16.00;62.20;;;;;;4992125;28;20022;-77
2022/02/05 03:02:25;;;;;;;4.38;1.70;;;16.00;62.20;;;;;;4991783;28;20082;-78
2022/02/05 03:04:53;;;;;;;3.35;1.30;;;16.10;62.10;;;;;;4990945;28;20034;-78
2022/02/05 03:07:23;;;;;;;3.28;1.27;;;16.10;62.00;;;;;;4992449;28;20028;-78
2022/02/05 03:09:49;;;;;;;4.53;1.35;;;16.10;61.90;;;;;;4990702;28;20044;-78
2022/02/05 03:12:15;;;;;;;5.45;1.30;;;16.10;61.80;;;;;;4992370;28;20062;-78
2022/02/05 03:14:41;;;;;;;5.13;1.08;;;16.10;61.80;;;;;;4992079;28;20031;-78
2022/02/05 03:19:43;;;;;;;4.47;1.23;;;16.10;61.70;;;;;;4991817;28;20027;-78
2022/02/05 03:22:09;;;;;;;3.90;1.33;;;16.10;61.70;;;;;;4992260;28;20018;-78
2022/02/05 03:24:35;;;;;;;4.35;1.55;;;16.10;61.70;;;;;;4991912;28;20371;-78
2022/02/05 03:27:00;;;;;;;4.07;1.55;;;16.10;61.70;;;;;;4992235;28;20470;-77
2022/02/05 03:29:26;;;;;;;3.70;1.23;;;16.10;61.70;;;;;;4990903;28;20058;-78
2022/02/05 03:31:51;;;;;;;4.22;1.40;;;16.10;61.90;;;;;;4990530;28;20026;-78
2022/02/05 03:34:17;;;;;;;5.00;1.60;;;16.10;62.00;;;;;;4991995;28;20451;-78
2022/02/05 03:36:43;;;;;;;5.47;1.60;;;16.10;62.10;;;;;;4991844;28;20037;-78
2022/02/05 03:39:09;;;;;;;4.00;1.00;;;16.10;62.30;;;;;;4992069;28;20513;-78
2022/02/05 03:41:35;;;;;;;3.85;1.20;;;16.20;62.30;;;;;;4990521;28;20506;-78
2022/02/05 03:44:01;;;;;;;4.70;1.88;;;16.10;62.30;;;;;;4992270;28;20474;-78
2022/02/05 03:46:29;;;;;;;3.63;1.20;;;16.10;62.30;;;;;;4992171;28;20152;-77
2022/02/05 03:48:54;;;;;;;4.28;1.35;;;16.10;62.40;;;;;;4991624;28;20441;-77
2022/02/05 03:51:20;;;;;;;3.97;1.10;;;16.10;62.30;;;;;;4990645;28;20113;-78
2022/02/05 03:53:46;;;;;;;3.13;1.25;;;16.10;62.20;;;;;;4991570;28;20506;-78
2022/02/05 03:56:11;;;;;;;3.00;1.20;;;16.10;62.00;;;;;;4991828;28;20206;-77
2022/02/05 03:58:37;;;;;;;2.40;0.95;;;16.20;62.10;;;;;;4991349;28;20406;-78
2022/02/05 04:01:03;;;;;;;3.45;1.02;;;16.20;62.10;;;;;;4991648;28;20033;-77
2022/02/05 04:03:29;;;;;;;5.57;1.65;;;16.20;62.00;;;;;;4974713;28;20030;-78
2022/02/05 04:05:55;;;;;;;5.28;1.30;;;16.10;61.90;;;;;;4991328;28;20430;-78
2022/02/05 04:08:20;;;;;;;5.10;1.65;;;16.10;62.00;;;;;;4991112;28;20026;-78
2022/02/05 04:10:51;;;;;;;3.88;1.17;;;16.20;61.90;;;;;;4991351;28;20062;-77
2022/02/05 04:18:47;;;;;;;4.72;1.40;;;16.20;62.10;;;;;;4991639;28;20505;-78
2022/02/05 04:21:13;;;;;;;3.03;1.30;;;16.20;62.20;;;;;;4991308;28;20116;-77
2022/02/05 04:23:39;;;;;;;3.33;1.08;;;16.20;62.20;;;;;;4991280;28;20129;-78
2022/02/05 04:26:06;;;;;;;4.82;1.40;;;16.10;62.20;;;;;;4974065;28;20092;-78
2022/02/05 04:28:33;;;;;;;4.00;1.10;;;16.10;62.30;;;;;;4991127;28;20026;-78
2022/02/05 04:30:58;;;;;;;4.82;1.23;;;16.10;62.30;;;;;;4991808;28;20069;-78
2022/02/05 04:33:24;;;;;;;5.78;1.45;;;16.20;62.30;;;;;;4991475;28;20034;-79
2022/02/05 04:35:49;;;;;;;3.92;1.20;;;16.20;62.20;;;;;;4992572;28;20105;-78
2022/02/05 04:38:16;;;;;;;5.53;1.10;;;16.20;61.90;;;;;;4994783;28;20041;-78
2022/02/05 04:40:50;;;;;;;3.47;1.05;;;16.20;61.90;;;;;;4994966;28;20029;-77
2022/02/05 04:43:47;;;;;;;3.85;1.27;;;16.20;61.90;;;;;;4995288;28;20471;-78
2022/02/05 05:01:37;;;;;;;6.97;1.52;;;16.20;61.50;;;;;;4994796;28;20113;-77
2022/02/05 05:04:19;;;;;;;4.25;1.30;;;16.20;61.50;;;;;;4994908;28;20026;-77
2022/02/05 05:09:42;;;;;;;5.05;1.40;;;16.20;61.30;;;;;;4990537;28;20161;-77
2022/02/05 05:20:09;;;;;;;4.32;1.30;;;16.10;61.10;;;;;;4994571;28;20551;-78
2022/02/05 05:22:34;;;;;;;3.75;1.30;;;16.10;61.00;;;;;;4994178;28;20101;-78
2022/02/05 05:25:00;;;;;;;4.82;1.27;;;16.10;61.10;;;;;;4994709;28;20149;-78
2022/02/05 05:27:27;;;;;;;2.58;0.90;;;16.10;61.00;;;;;;4994373;28;20050;-78
2022/02/05 05:29:53;;;;;;;3.47;1.02;;;16.10;60.90;;;;;;5009088;28;20019;-78
2022/02/05 05:32:18;;;;;;;7.40;1.25;;;16.10;60.90;;;;;;4994205;28;20048;-78
2022/02/05 05:34:44;;;;;;;6.80;0.90;;;16.10;60.90;;;;;;4993613;28;20108;-77
2022/02/05 05:37:10;;;;;;;4.88;1.33;;;16.10;60.90;;;;;;4994138;28;20030;-77
2022/02/05 05:39:37;;;;;;;5.15;1.40;;;16.10;60.80;;;;;;4993948;28;20101;-78
2022/02/05 05:42:07;;;;;;;2.75;0.90;;;16.10;60.80;;;;;;4994144;28;20018;-77
2022/02/05 05:52:17;;;;;;;5.47;1.08;;;16.10;61.00;;;;;;4993993;28;20026;-77
2022/02/05 05:54:43;;;;;;;4.38;1.42;;;16.10;61.00;;;;;;4976198;28;20026;-77
2022/02/05 05:57:10;;;;;;;4.70;0.95;;;16.10;60.90;;;;;;4993874;28;20106;-77
2022/02/05 05:59:35;;;;;;;4.55;1.10;;;16.10;60.90;;;;;;4976253;28;20453;-77
2022/02/05 06:02:01;;;;;;;4.60;1.15;;;16.10;60.80;;;;;;4993078;28;20101;-76
2022/02/05 06:04:27;;;;;;;3.95;0.95;;;16.20;60.80;;;;;;4993941;28;20110;-77
2022/02/05 06:06:53;;;;;;;3.60;1.00;;;16.10;60.70;;;;;;4993360;28;20062;-77
2022/02/05 06:09:18;;;;;;;3.92;1.60;;;16.10;60.70;;;;;;4993578;28;20117;-78
2022/02/05 06:11:44;;;;;;;2.80;1.10;;;16.10;60.70;;;;;;4991400;28;20041;-78
2022/02/05 06:14:10;;;;;;;3.20;1.00;;;16.10;60.60;;;;;;4993423;28;20045;-77
2022/02/05 06:16:36;;;;;;;4.40;1.40;;;16.10;60.60;;;;;;4993221;28;20033;-77
2022/02/05 06:19:03;;;;;;;4.32;1.15;;;16.10;60.60;;;;;;4993049;28;20022;-77
2022/02/05 06:21:28;;;;;;;3.83;1.20;;;16.10;60.50;;;;;;4993650;28;20125;-78
2022/02/05 06:23:54;;;;;;;3.08;0.93;;;16.10;60.60;;;;;;4992965;28;20529;-78
2022/02/05 06:26:20;;;;;;;3.08;1.02;;;16.10;60.50;;;;;;4992000;28;20038;-78
2022/02/05 06:28:46;;;;;;;4.47;0.93;;;16.00;60.40;;;;;;4975416;28;20023;-79
2022/02/05 06:31:11;;;;;;;2.80;1.00;;;16.00;60.40;;;;;;4992647;28;20037;-77
2022/02/05 06:33:37;;;;;;;4.10;1.25;;;16.00;60.40;;;;;;4992427;28;20034;-77
2022/02/05 06:36:03;;;;;;;3.50;1.00;;;16.00;60.40;;;;;;4993021;28;20088;-78
2022/02/05 06:38:29;;;;;;;3.92;1.17;;;16.00;60.60;;;;;;4993197;28;20089;-78
2022/02/05 06:40:54;;;;;;;6.25;1.88;;;16.00;60.70;;;;;;4992744;28;20030;-78
2022/02/05 06:43:20;;;;;;;3.78;1.38;;;16.00;60.70;;;;;;4992962;28;20026;-78
2022/02/05 06:45:45;;;;;;;6.50;1.17;;;16.00;60.80;;;;;;4992376;28;20097;-77
2022/02/05 06:48:11;;;;;;;6.22;1.90;;;16.00;60.80;;;;;;4992846;28;20050;-77
2022/02/05 06:50:37;;;;;;;5.03;1.33;;;16.00;60.80;;;;;;4991571;28;20457;-78
2022/02/05 06:53:03;;;;;;;3.08;1.10;;;16.00;61.50;;;;;;4992681;28;20138;-77
2022/02/05 06:55:29;;;;;;;3.58;1.08;;;16.00;60.60;;;;;;4993004;28;20050;-78
2022/02/05 06:57:54;;;;;;;2.90;1.08;;;15.90;60.50;;;;;;4992032;28;20474;-78
2022/02/05 07:00:20;;;;;;;3.45;1.23;;;16.00;60.60;;;;;;4992017;28;20100;-78
2022/02/05 07:02:46;;;;;;;4.40;1.13;;;16.00;60.60;;;;;;4992419;28;20053;-78
2022/02/05 07:05:12;;;;;;;4.30;1.45;;;16.00;60.60;;;;;;4992539;28;20030;-78
2022/02/05 07:07:39;;;;;;;5.65;1.10;;;16.00;60.60;;;;;;4991868;28;20105;-79
2022/02/05 07:10:06;;;;;;;3.92;1.20;;;16.00;60.50;;;;;;4992250;28;20478;-77
2022/02/05 07:12:36;;;;;;;4.22;1.40;;;16.00;60.50;;;;;;4992158;28;20076;-77
2022/02/05 07:15:07;;;;;;;4.22;1.35;;;16.00;60.50;;;;;;4992376;28;20061;-78
2022/02/05 07:20:09;;;;;;;4.40;1.38;;;16.00;60.50;;;;;;4992762;28;20158;-78
2022/02/05 07:22:47;;;;;;;4.95;1.23;;;16.00;60.50;;;;;;5007052;28;20030;-77
2022/02/05 07:30:41;;;;;;;4.05;1.30;;;16.00;60.80;;;;;;4991512;28;20076;-77
2022/02/05 07:33:06;;;;;;;4.25;1.33;;;16.00;60.90;;;;;;4991615;28;20528;-78
2022/02/05 07:35:32;;;;;;;3.67;1.00;;;16.00;61.10;;;;;;4991262;28;20026;-78
2022/02/05 07:37:58;;;;;;;3.63;1.67;;;16.10;61.30;;;;;;5007416;28;20510;-78
2022/02/05 07:40:24;;;;;;;4.35;1.45;;;16.10;61.20;;;;;;4991896;28;20520;-77
2022/02/05 07:42:49;;;;;;;2.75;1.20;;;16.10;61.00;;;;;;4991861;28;20422;-77
2022/02/05 07:45:16;;;;;;;6.55;1.45;;;16.10;61.00;;;;;;4991909;28;20022;-78
2022/02/05 07:47:41;;;;;;;4.28;1.17;;;16.10;61.00;;;;;;4991675;28;20026;-77
2022/02/05 07:50:08;;;;;;;2.45;0.98;;;16.20;60.80;;;;;;4991943;28;20105;-78
2022/02/05 07:52:34;;;;;;;4.15;1.00;;;16.20;61.00;;;;;;5006648;28;20026;-78
2022/02/05 07:55:00;;;;;;;5.35;1.35;;;16.20;61.30;;;;;;4992159;28;20747;-78
2022/02/05 07:57:27;;;;;;;3.83;1.17;;;16.30;61.40;;;;;;4991298;28;20026;-78
2022/02/05 07:59:52;;;;;;;3.53;1.48;;;16.30;61.30;;;;;;4991199;28;20401;-78
2022/02/05 08:02:18;;;;;;;5.20;1.10;;;16.30;61.20;;;;;;4991826;28;20034;-79
2022/02/05 08:04:43;;;;;;;3.30;1.00;;;16.30;61.40;;;;;;4991501;28;20026;-78
2022/02/05 08:07:09;;;;;;;5.65;1.35;;;16.30;61.40;;;;;;4991814;28;20027;-78
2022/02/05 08:12:20;;;;;;;5.70;1.08;;;16.40;61.20;;;;;;4994349;28;20189;-77
2022/02/05 08:14:48;;;;;;;5.95;1.33;;;16.50;60.30;;;;;;5009165;28;20030;-78
2022/02/05 08:17:20;;;;;;;7.45;1.38;;;16.50;60.00;;;;;;4994043;28;20026;-77
2022/02/05 08:19:46;;;;;;;7.25;1.45;;;16.60;59.90;;;;;;4993815;28;20096;-77
2022/02/05 08:22:12;;;;;;;4.03;1.20;;;16.60;59.70;;;;;;4975026;28;20517;-76
2022/02/05 08:24:38;;;;;;;4.88;1.42;;;16.60;60.40;;;;;;4992452;28;20081;-77
2022/02/05 08:27:04;;;;;;;7.93;2.35;;;16.70;60.00;;;;;;4974948;28;20026;-76
2022/02/05 08:29:31;;;;;;;7.95;1.70;;;16.70;60.50;;;;;;4992657;28;20026;-77
2022/02/05 08:31:58;;;;;;;5.32;1.33;;;16.70;60.50;;;;;;4975286;28;20022;-76
2022/02/05 08:34:24;;;;;;;4.45;1.15;;;16.80;60.80;;;;;;4992299;28;20034;-77
2022/02/05 08:36:50;;;;;;;6.55;1.45;;;16.80;60.90;;;;;;4992228;28;20015;-77
2022/02/05 08:39:17;;;;;;;4.07;1.48;;;16.80;60.80;;;;;;4992442;28;20097;-77
2022/02/05 08:41:44;;;;;;;2.67;1.00;;;16.80;60.70;;;;;;4992081;28;20056;-77
2022/02/05 08:44:10;;;;;;;7.82;1.60;;;16.90;60.60;;;;;;4974781;28;20019;-76
2022/02/05 08:46:37;;;;;;;4.13;1.30;;;16.90;60.50;;;;;;4991992;28;20026;-77
2022/02/05 08:49:04;;;;;;;2.88;1.00;;;16.90;60.40;;;;;;4992705;28;20025;-77
2022/02/05 08:51:31;;;;;;;4.82;1.42;;;17.00;60.30;;;;;;4993299;28;20030;-78
2022/02/05 08:53:58;;;;;;;5.45;1.05;;;16.90;60.10;;;;;;4993345;28;20109;-78
2022/02/05 08:56:24;;;;;;;7.10;1.27;;;17.00;60.30;;;;;;4993706;28;20022;-77
2022/02/05 08:58:53;;;;;;;4.07;1.60;;;17.00;60.70;;;;;;4992097;28;20026;-77
2022/02/05 09:01:25;;;;;;;6.40;1.65;;;17.10;60.80;;;;;;4991603;28;20110;-78
2022/02/05 09:06:29;;;;;;;4.47;1.10;;;17.10;60.50;;;;;;4993701;28;20050;-78
2022/02/05 09:09:22;;;;;;;5.00;1.40;;;17.10;60.50;;;;;;4988287;28;20486;-78
2022/02/05 09:14:36;;;;;;;5.90;1.38;;;17.20;61.00;;;;;;4991167;28;20105;-78
2022/02/05 09:17:02;;;;;;;4.97;1.30;;;17.20;60.80;;;;;;4993643;28;20033;-78
2022/02/05 09:19:32;;;;;;;4.30;1.90;;;17.20;60.60;;;;;;4993369;28;20042;-78
2022/02/05 09:21:58;;;;;;;4.05;1.50;;;17.20;60.40;;;;;;4993502;28;20387;-76
2022/02/05 09:24:24;;;;;;;5.38;1.52;;;17.30;60.30;;;;;;4992380;28;20068;-77
2022/02/05 09:26:57;;;;;;;4.30;1.27;;;17.30;60.20;;;;;;4993372;28;20532;-76
2022/02/05 09:29:24;;;;;;;6.05;1.10;;;17.30;60.20;;;;;;4989531;28;20033;-76
2022/02/05 09:31:50;;;;;;;6.93;1.27;;;17.30;60.00;;;;;;4992130;28;20548;-76
2022/02/05 09:34:17;;;;;;;3.30;1.27;;;17.30;59.80;;;;;;4975897;28;20031;-76
2022/02/05 09:36:43;;;;;;;5.85;1.63;;;17.40;60.00;;;;;;4993486;28;20398;-76
2022/02/05 09:39:12;;;;;;;5.72;1.55;;;17.40;59.80;;;;;;4992445;28;20038;-77
2022/02/05 09:41:40;;;;;;;5.65;1.60;;;17.40;59.80;;;;;;4992972;28;20101;-77
2022/02/05 09:44:08;;;;;;;7.75;1.52;;;17.40;59.70;;;;;;4993216;28;20044;-77
2022/02/05 09:46:35;;;;;;;4.03;1.55;;;17.40;59.80;;;;;;4992680;28;20463;-76
2022/02/05 09:49:02;;;;;;;3.60;1.33;;;17.40;59.70;;;;;;4993524;28;20066;-76
2022/02/05 09:51:34;;;;;;;3.42;1.17;;;17.50;59.60;;;;;;4993560;28;20053;-76
2022/02/05 09:54:01;;;;;;;5.05;1.27;;;17.50;59.40;;;;;;4993045;28;20035;-76
2022/02/05 09:56:29;;;;;;;6.18;1.80;;;17.50;59.20;;;;;;4992106;28;20022;-76
2022/02/05 09:58:55;;;;;;;4.43;1.20;;;17.50;59.20;;;;;;4992203;28;20033;-78
2022/02/05 10:01:34;;;;;;;4.55;1.30;;;17.50;58.90;;;;;;4992299;28;20122;-77
2022/02/05 10:04:00;;;;;;;4.50;1.60;;;17.50;58.80;;;;;;4996907;28;20471;-76
2022/02/05 10:06:32;;;;;;;4.28;1.48;;;17.60;58.80;;;;;;4992072;28;20026;-77
2022/02/05 10:09:09;;;;;;;3.65;1.50;;;17.60;59.10;;;;;;4992293;28;20094;-78
2022/02/05 10:11:49;;;;;;;4.15;1.23;;;17.70;59.20;;;;;;4989796;28;20560;-77
2022/02/05 10:14:17;;;;;;;5.75;1.17;;;17.70;59.00;;;;;;4993699;28;20177;-77
2022/02/05 10:16:59;;;;;;;4.10;1.35;;;17.80;59.30;;;;;;4992569;28;20029;-77
2022/02/05 10:19:45;;;;;;;6.72;1.50;;;17.80;59.20;;;;;;4992506;28;20054;-78
2022/02/05 10:22:11;;;;;;;6.50;4.18;;;17.90;58.70;;;;;;4994815;28;20045;-80
2022/02/05 10:25:00;;;;;;;14.98;6.35;;;18.00;58.90;;;;;;4975611;28;20534;-79
2022/02/05 10:27:42;;;;;;;10.40;5.40;;;18.10;59.20;;;;;;4983062;28;20518;-78
2022/02/05 10:30:19;;;;;;;7.82;4.28;;;18.20;59.30;;;;;;4991930;28;20026;-79
2022/02/05 10:32:49;;;;;;;6.55;3.60;;;18.30;59.20;;;;;;4990784;28;20441;-78
2022/02/05 10:37:45;;;;;;;7.30;3.53;;;18.40;59.30;;;;;;4989710;28;20019;-78
2022/02/05 10:40:14;;;;;;;5.40;2.80;;;18.50;59.40;;;;;;4990934;28;20015;-78
2022/02/05 10:45:29;;;;;;;6.82;2.80;;;18.70;59.50;;;;;;4991626;28;20030;-80
2022/02/05 10:47:57;;;;;;;3.95;2.08;;;18.70;59.40;;;;;;4991557;28;20490;-80
2022/02/05 10:50:33;;;;;;;4.80;2.28;;;18.80;59.30;;;;;;4974554;28;20022;-78
2022/02/05 10:53:12;;;;;;;7.28;2.17;;;18.90;59.30;;;;;;4992328;28;20097;-81
2022/02/05 10:58:33;;;;;;;5.45;1.77;;;19.10;59.10;;;;;;4991843;28;20065;-80
2022/02/05 11:06:54;;;;;;;5.45;1.63;;;19.40;59.40;;;;;;4991791;28;20038;-80
2022/02/05 11:09:23;;;;;;;7.28;2.28;;;19.50;59.40;;;;;;4991403;28;20121;-80
2022/02/05 11:20:00;;;;;;;3.42;1.45;;;19.90;58.90;;;;;;4991691;28;20034;-80
2022/02/05 11:22:33;;;;;;;5.75;1.75;;;20.00;58.50;;;;;;4985978;28;20413;-81
2022/02/05 11:25:05;;;;;;;9.50;1.83;;;20.10;58.40;;;;;;4974570;28;20018;-81
2022/02/05 11:27:31;;;;;;;6.25;1.27;;;20.20;58.50;;;;;;4990784;28;20033;-79
2022/02/05 11:29:56;;;;;;;9.10;1.80;;;20.30;58.00;;;;;;4973971;28;20030;-79
2022/02/05 11:32:30;;;;;;;4.75;1.45;;;20.40;58.00;;;;;;4990062;28;20034;-78
2022/02/05 11:35:04;;;;;;;4.25;1.30;;;20.60;57.60;;;;;;4988401;28;20402;-79
2022/02/05 11:37:30;;;;;;;4.28;1.85;;;20.80;57.20;;;;;;4973234;28;20402;-78
2022/02/05 11:39:56;;;;;;;7.80;1.50;;;21.10;56.60;;;;;;4989386;28;20026;-79
2022/02/05 11:42:28;;;;;;;5.80;1.63;;;21.40;55.90;;;;;;4989537;28;20034;-81
2022/02/05 11:44:56;;;;;;;6.10;1.77;;;21.90;54.90;;;;;;4988404;28;20036;-79
2022/02/05 11:47:23;;;;;;;4.72;1.60;;;23.10;53.50;;;;;;4990426;28;20073;-79
2022/02/05 11:49:52;;;;;;;7.80;1.55;;;25.60;49.40;;;;;;4986353;28;20030;-81
2022/02/05 11:52:36;;;;;;;5.00;1.95;;;26.90;46.50;;;;;;4964885;28;20033;-81
2022/02/05 11:55:04;;;;;;;3.30;1.60;;;28.00;44.40;;;;;;4990650;28;20026;-81
2022/02/05 11:57:45;;;;;;;4.70;2.20;;;28.80;42.60;;;;;;4990920;28;20463;-83
2022/02/05 12:00:21;;;;;;;4.72;1.90;;;29.40;41.20;;;;;;4973332;28;20372;-84
2022/02/05 12:02:58;;;;;;;6.57;1.50;;;29.70;40.30;;;;;;4996008;28;20017;-84
2022/02/05 12:05:37;;;;;;;8.82;1.42;;;30.10;39.70;;;;;;4991192;28;20033;-83
2022/02/05 12:08:06;;;;;;;5.32;1.58;;;30.60;39.00;;;;;;4991000;28;20561;-83
2022/02/05 12:10:44;;;;;;;7.60;1.95;;;31.00;38.20;;;;;;4991158;28;20540;-80
2022/02/05 12:13:27;;;;;;;4.82;1.70;;;31.00;37.80;;;;;;4975690;28;20029;-83
2022/02/05 12:15:55;;;;;;;5.57;1.73;;;31.00;37.80;;;;;;4990737;28;20037;-84
2022/02/05 12:18:25;;;;;;;4.32;1.25;;;31.30;38.20;;;;;;4990986;28;20022;-82
2022/02/05 12:20:57;;;;;;;5.45;1.98;;;31.40;38.20;;;;;;4990773;28;20027;-83
2022/02/05 12:26:17;;;;;;;6.00;1.85;;;30.80;38.30;;;;;;4990751;28;20030;-82
2022/02/05 12:28:44;;;;;;;4.82;1.55;;;30.00;39.60;;;;;;4990638;28;20041;-83
2022/02/05 12:31:20;;;;;;;4.35;1.60;;;29.70;39.80;;;;;;4990770;28;20034;-83
2022/02/05 12:33:51;;;;;;;7.10;1.90;;;29.60;40.10;;;;;;4990562;28;20034;-82
2022/02/05 12:36:43;;;;;;;5.25;1.83;;;28.40;41.50;;;;;;4990851;28;20533;-83
2022/02/05 12:39:22;;;;;;;5.35;2.03;;;28.70;41.40;;;;;;4958671;28;20054;-82
2022/02/05 12:42:03;;;;;;;6.40;1.98;;;30.00;39.40;;;;;;4990519;28;20049;-84
2022/02/05 12:44:30;;;;;;;3.95;1.58;;;29.90;39.30;;;;;;4991165;28;20077;-83
2022/02/05 12:47:08;;;;;;;5.53;1.70;;;30.30;38.70;;;;;;4990448;28;20029;-83
2022/02/05 12:49:53;;;;;;;4.20;1.88;;;30.60;38.00;;;;;;4990547;28;20038;-83
2022/02/05 12:52:31;;;;;;;3.70;1.33;;;29.80;38.00;;;;;;4990588;28;20030;-83
2022/02/05 12:54:59;;;;;;;4.30;1.85;;;27.40;41.60;;;;;;4990362;28;20035;-83
2022/02/05 12:57:26;;;;;;;5.05;1.67;;;25.90;43.80;;;;;;4985768;28;20402;-82
2022/02/05 12:59:52;;;;;;;4.80;1.30;;;24.90;45.50;;;;;;4980965;28;20553;-90
2022/02/05 13:02:19;;;;;;;4.72;1.67;;;24.40;46.60;;;;;;4985242;28;20050;-81
2022/02/05 13:04:55;;;;;;;4.95;1.33;;;23.80;47.70;;;;;;4992190;28;20035;-80
2022/02/05 13:07:22;;;;;;;3.80;1.33;;;23.30;48.50;;;;;;4993327;28;20109;-79
2022/02/05 13:10:04;;;;;;;6.78;1.52;;;22.90;49.00;;;;;;4993666;28;20018;-80
2022/02/05 13:12:33;;;;;;;7.03;1.50;;;22.50;49.40;;;;;;4994348;28;20041;-78
2022/02/05 13:15:08;;;;;;;5.75;1.60;;;22.20;50.50;;;;;;4990871;28;20118;-79
2022/02/05 13:17:46;;;;;;;4.20;1.33;;;22.00;51.30;;;;;;4981370;28;20097;-79
2022/02/05 13:28:31;;;;;;;17.15;3.55;;;21.10;53.90;;;;;;4992764;28;20031;-78
2022/02/05 13:36:29;;;;;;;10.32;2.40;;;20.60;56.30;;;;;;4992023;28;20045;-78
2022/02/05 13:44:16;;;;;;;16.98;3.97;;;20.30;58.80;;;;;;4993375;28;20030;-77
2022/02/05 13:46:42;;;;;;;14.65;3.03;;;20.10;58.40;;;;;;4992858;28;20026;-78
2022/02/05 13:49:15;;;;;;;9.40;2.67;;;20.00;57.60;;;;;;4992693;28;20041;-78
2022/02/05 13:51:41;;;;;;;18.67;3.03;;;20.00;57.90;;;;;;4975456;28;20030;-80
2022/02/05 13:54:07;;;;;;;10.45;2.28;;;19.90;57.90;;;;;;4992121;28;20069;-78
2022/02/05 13:56:34;;;;;;;14.45;2.50;;;19.80;58.00;;;;;;4991634;28;20026;-78
2022/02/05 13:59:01;;;;;;;13.95;2.45;;;19.70;58.20;;;;;;4991868;28;20041;-77
2022/02/05 14:01:33;;;;;;;11.18;2.15;;;19.60;58.00;;;;;;4992395;28;20023;-78
2022/02/05 14:04:23;;;;;;;12.98;3.83;;;19.50;58.40;;;;;;4998308;28;20030;-78
2022/02/05 14:06:59;;;;;;;9.48;2.10;;;19.40;59.00;;;;;;4974061;28;20056;-78
2022/02/05 14:09:29;;;;;;;10.73;2.90;;;19.30;59.00;;;;;;4990342;28;20026;-78
2022/02/05 14:11:57;;;;;;;9.80;2.72;;;19.20;59.40;;;;;;4973786;28;20088;-78
2022/02/05 14:14:31;;;;;;;6.40;2.03;;;19.20;59.20;;;;;;4988318;28;20683;-77
2022/02/05 14:16:57;;;;;;;9.90;2.70;;;19.10;59.30;;;;;;4991754;28;20037;-78
2022/02/05 14:19:25;;;;;;;10.20;2.80;;;19.10;59.20;;;;;;4991238;28;20025;-76
2022/02/05 14:21:53;;;;;;;8.77;2.25;;;19.10;59.00;;;;;;4991179;28;20062;-77
2022/02/05 14:24:18;;;;;;;8.25;2.33;;;19.10;59.00;;;;;;4973819;28;20029;-77
2022/02/05 14:27:06;;;;;;;6.63;2.22;;;19.10;58.90;;;;;;4973416;28;20420;-76
2022/02/05 14:30:15;;;;;;;6.65;1.77;;;19.10;58.90;;;;;;4990083;28;20026;-77
2022/02/05 14:35:30;;;;;;;9.93;2.33;;;19.00;58.60;;;;;;4989582;28;20033;-77
2022/02/05 14:40:44;;;;;;;5.88;1.60;;;18.90;58.70;;;;;;4986768;28;20118;-78
2022/02/05 14:43:11;;;;;;;6.55;1.70;;;18.90;58.80;;;;;;4989673;28;20029;-78
2022/02/05 14:45:38;;;;;;;8.07;1.98;;;18.80;58.80;;;;;;4992077;28;20041;-77
2022/02/05 14:48:04;;;;;;;11.13;2.47;;;18.70;58.70;;;;;;4974681;28;20030;-77
2022/02/05 14:50:29;;;;;;;16.73;2.75;;;18.60;58.80;;;;;;4977780;28;20023;-77
2022/02/05 14:52:55;;;;;;;13.90;2.25;;;18.50;59.00;;;;;;4991743;28;20094;-76
2022/02/05 14:55:21;;;;;;;41.53;3.70;;;18.40;59.20;;;;;;4991964;28;20506;-77
2022/02/05 14:57:47;;;;;;;20.40;3.67;;;18.30;59.20;;;;;;4991733;28;20505;-77
2022/02/05 15:00:13;;;;;;;29.33;4.07;;;18.30;59.20;;;;;;4991823;28;20034;-77
2022/02/05 15:02:39;;;;;;;31.77;3.50;;;18.20;59.30;;;;;;4996875;28;20033;-77
2022/02/05 15:05:11;;;;;;;28.38;3.85;;;18.20;59.40;;;;;;4990402;28;20653;-76
2022/02/05 15:07:40;;;;;;;19.77;2.92;;;18.20;59.30;;;;;;4973701;28;20117;-76
2022/02/05 15:10:11;;;;;;;25.60;3.75;;;18.20;59.30;;;;;;4962486;28;20031;-76
2022/02/05 15:12:38;;;;;;;15.95;3.30;;;18.10;59.50;;;;;;4987786;28;20060;-77
2022/02/05 15:15:11;;;;;;;20.27;2.63;;;18.10;59.50;;;;;;4990342;28;20073;-76
2022/02/05 15:17:42;;;;;;;13.57;2.67;;;18.00;59.60;;;;;;4989874;28;20026;-76
2022/02/05 15:20:12;;;;;;;17.55;2.97;;;18.00;59.70;;;;;;4989966;28;20022;-77
2022/02/05 15:22:38;;;;;;;17.67;2.45;;;17.90;59.70;;;;;;4991169;28;20030;-76
2022/02/05 15:25:05;;;;;;;12.40;2.50;;;17.80;59.80;;;;;;4973443;28;20173;-76
2022/02/05 15:27:31;;;;;;;14.30;2.65;;;17.80;59.90;;;;;;4973906;28;20023;-76
2022/02/05 15:29:56;;;;;;;14.35;3.17;;;17.70;59.90;;;;;;4991267;28;20037;-78
2022/02/05 15:32:22;;;;;;;15.75;2.60;;;17.70;60.10;;;;;;4991338;28;20031;-80
2022/02/05 15:34:48;;;;;;;15.82;1.83;;;17.60;60.20;;;;;;4973589;28;20088;-78
2022/02/05 15:37:23;;;;;;;10.57;2.20;;;17.60;60.40;;;;;;4991412;28;20077;-79
2022/02/05 15:45:02;;;;;;;11.50;2.63;;;17.50;60.20;;;;;;4991824;28;20029;-79
2022/02/05 15:47:29;;;;;;;8.52;1.67;;;17.40;60.40;;;;;;4991233;28;20026;-79
2022/02/05 15:49:55;;;;;;;10.85;1.85;;;17.40;60.50;;;;;;4982792;28;20446;-79
2022/02/05 15:52:21;;;;;;;10.70;1.90;;;17.30;60.90;;;;;;4991202;28;20066;-78
2022/02/05 15:54:48;;;;;;;16.98;2.28;;;17.30;60.60;;;;;;4990583;28;20034;-78
2022/02/05 16:02:17;;;;;;;13.15;2.10;;;17.20;60.40;;;;;;4993284;28;20038;-80
2022/02/05 16:04:43;;;;;;;8.38;1.73;;;17.20;60.00;;;;;;4994628;28;20049;-79
2022/02/05 16:07:08;;;;;;;11.40;1.85;;;17.30;59.90;;;;;;4993822;28;20042;-79
2022/02/05 16:09:34;;;;;;;9.25;1.63;;;17.40;59.90;;;;;;4984291;28;20019;-77
2022/02/05 16:12:00;;;;;;;13.75;2.20;;;17.40;59.80;;;;;;4989916;28;20026;-79
2022/02/05 16:14:25;;;;;;;7.95;2.15;;;17.60;59.80;;;;;;4989476;28;20041;-79
2022/02/05 16:16:51;;;;;;;11.95;1.75;;;17.60;59.90;;;;;;4986561;28;20187;-77
2022/02/05 16:19:17;;;;;;;7.97;1.50;;;17.60;60.00;;;;;;4989277;28;20026;-78
2022/02/05 16:21:43;;;;;;;6.63;2.08;;;17.60;60.10;;;;;;4989593;28;20026;-78